sensor_id;sensor_type;location;lat;lon;timestamp;P1;durP1;ratioP1;P2;durP2;ratioP2
11970;SDS011;6045;42.682;23.294;2022-10-31T00:00:08;2.17;;;1.57;;
11970;SDS011;6045;42.682;23.294;2022-10-31T00:02:36;1.97;;;1.47;;
11970;SDS011;6045;42.682;23.294;2022-10-31T00:05:04;1.93;;;1.57;;
11970;SDS011;6045;42.682;23.294;2022-10-31T00:07:31;2.00;;;1.40;;
11970;SDS011;6045;42.682;23.294;2022-10-31T00:09:58;2.77;;;1.47;;
11970;SDS011;6045;42.682;23.294;2022-10-31T00:12:25;1.83;;;1.60;;
11970;SDS011;6045;42.682;23.294;2022-10-31T00:14:52;1.87;;;1.67;;
11970;SDS011;6045;42.682;23.294;2022-10-31T00:17:20;1.80;;;1.70;;
11970;SDS011;6045;42.682;23.294;2022-10-31T00:19:47;2.17;;;1.33;;
11970;SDS011;6045;42.682;23.294;2022-10-31T00:22:14;1.97;;;1.50;;
11970;SDS011;6045;42.682;23.294;2022-10-31T00:24:40;2.70;;;1.43;;
11970;SDS011;6045;42.682;23.294;2022-10-31T00:27:07;2.60;;;1.33;;
11970;SDS011;6045;42.682;23.294;2022-10-31T00:29:34;1.63;;;1.00;;
11970;SDS011;6045;42.682;23.294;2022-10-31T00:32:01;2.43;;;1.50;;
11970;SDS011;6045;42.682;23.294;2022-10-31T00:34:30;2.07;;;1.40;;
11970;SDS011;6045;42.682;23.294;2022-10-31T00:36:57;2.20;;;1.60;;
11970;SDS011;6045;42.682;23.294;2022-10-31T00:39:24;3.43;;;1.73;;
11970;SDS011;6045;42.682;23.294;2022-10-31T00:41:51;2.07;;;1.80;;
11970;SDS011;6045;42.682;23.294;2022-10-31T00:44:17;1.33;;;1.13;;
11970;SDS011;6045;42.682;23.294;2022-10-31T00:46:44;1.80;;;1.00;;
11970;SDS011;6045;42.682;23.294;2022-10-31T00:49:11;2.33;;;1.43;;
11970;SDS011;6045;42.682;23.294;2022-10-31T00:51:39;4.00;;;1.57;;
11970;SDS011;6045;42.682;23.294;2022-10-31T00:54:06;1.23;;;1.13;;
11970;SDS011;6045;42.682;23.294;2022-10-31T00:56:33;1.87;;;1.20;;
11970;SDS011;6045;42.682;23.294;2022-10-31T00:59:00;2.00;;;1.47;;
11970;SDS011;6045;42.682;23.294;2022-10-31T01:01:26;1.27;;;1.17;;
11970;SDS011;6045;42.682;23.294;2022-10-31T01:03:53;1.30;;;1.20;;
11970;SDS011;6045;42.682;23.294;2022-10-31T01:06:20;2.50;;;1.20;;
11970;SDS011;6045;42.682;23.294;2022-10-31T01:08:48;3.90;;;1.93;;
11970;SDS011;6045;42.682;23.294;2022-10-31T01:11:16;1.97;;;1.03;;
11970;SDS011;6045;42.682;23.294;2022-10-31T01:13:45;2.20;;;1.30;;
11970;SDS011;6045;42.682;23.294;2022-10-31T01:16:13;1.97;;;1.83;;
11970;SDS011;6045;42.682;23.294;2022-10-31T01:18:43;1.40;;;1.00;;
11970;SDS011;6045;42.682;23.294;2022-10-31T01:21:11;3.70;;;1.60;;
11970;SDS011;6045;42.682;23.294;2022-10-31T01:23:41;1.73;;;1.30;;
11970;SDS011;6045;42.682;23.294;2022-10-31T01:26:12;1.60;;;1.27;;
11970;SDS011;6045;42.682;23.294;2022-10-31T01:28:43;1.27;;;1.10;;
11970;SDS011;6045;42.682;23.294;2022-10-31T01:31:12;3.03;;;1.30;;
11970;SDS011;6045;42.682;23.294;2022-10-31T01:33:39;1.50;;;1.30;;
11970;SDS011;6045;42.682;23.294;2022-10-31T01:36:12;1.63;;;1.50;;
11970;SDS011;6045;42.682;23.294;2022-10-31T01:38:41;2.43;;;1.77;;
11970;SDS011;6045;42.682;23.294;2022-10-31T01:41:10;2.00;;;1.20;;
11970;SDS011;6045;42.682;23.294;2022-10-31T01:43:41;2.47;;;1.60;;
11970;SDS011;6045;42.682;23.294;2022-10-31T01:46:12;3.70;;;1.60;;
11970;SDS011;6045;42.682;23.294;2022-10-31T01:48:47;1.43;;;1.33;;
11970;SDS011;6045;42.682;23.294;2022-10-31T01:51:21;1.97;;;1.60;;
11970;SDS011;6045;42.682;23.294;2022-10-31T01:53:54;3.00;;;2.20;;
11970;SDS011;6045;42.682;23.294;2022-10-31T01:56:28;2.07;;;1.33;;
11970;SDS011;6045;42.682;23.294;2022-10-31T01:58:59;1.93;;;1.43;;
11970;SDS011;6045;42.682;23.294;2022-10-31T02:01:28;1.63;;;1.23;;
11970;SDS011;6045;42.682;23.294;2022-10-31T02:03:56;2.33;;;1.93;;
11970;SDS011;6045;42.682;23.294;2022-10-31T02:06:26;3.73;;;1.83;;
11970;SDS011;6045;42.682;23.294;2022-10-31T02:09:04;2.17;;;1.73;;
11970;SDS011;6045;42.682;23.294;2022-10-31T02:12:26;2.57;;;1.73;;
11970;SDS011;6045;42.682;23.294;2022-10-31T02:25:44;2.30;;;1.70;;
11970;SDS011;6045;42.682;23.294;2022-10-31T02:28:33;2.33;;;2.07;;
11970;SDS011;6045;42.682;23.294;2022-10-31T02:31:22;4.17;;;2.30;;
11970;SDS011;6045;42.682;23.294;2022-10-31T02:33:57;2.37;;;1.80;;
11970;SDS011;6045;42.682;23.294;2022-10-31T02:36:31;3.37;;;2.07;;
11970;SDS011;6045;42.682;23.294;2022-10-31T02:39:08;2.47;;;1.80;;
11970;SDS011;6045;42.682;23.294;2022-10-31T02:41:41;4.20;;;2.20;;
11970;SDS011;6045;42.682;23.294;2022-10-31T02:44:16;2.07;;;1.80;;
11970;SDS011;6045;42.682;23.294;2022-10-31T02:46:51;2.40;;;2.17;;
11970;SDS011;6045;42.682;23.294;2022-10-31T02:49:22;3.17;;;2.20;;
11970;SDS011;6045;42.682;23.294;2022-10-31T02:51:59;6.57;;;2.50;;
11970;SDS011;6045;42.682;23.294;2022-10-31T02:54:26;2.27;;;2.07;;
11970;SDS011;6045;42.682;23.294;2022-10-31T02:56:54;4.07;;;2.70;;
11970;SDS011;6045;42.682;23.294;2022-10-31T02:59:26;2.87;;;2.20;;
11970;SDS011;6045;42.682;23.294;2022-10-31T03:02:08;3.17;;;2.10;;
11970;SDS011;6045;42.682;23.294;2022-10-31T03:04:53;3.37;;;2.03;;
11970;SDS011;6045;42.682;23.294;2022-10-31T03:07:47;3.27;;;2.23;;
11970;SDS011;6045;42.682;23.294;2022-10-31T03:10:25;3.37;;;2.70;;
11970;SDS011;6045;42.682;23.294;2022-10-31T03:13:01;2.70;;;2.08;;
11970;SDS011;6045;42.682;23.294;2022-10-31T03:15:36;3.30;;;2.67;;
11970;SDS011;6045;42.682;23.294;2022-10-31T03:18:09;4.68;;;2.38;;
11970;SDS011;6045;42.682;23.294;2022-10-31T03:20:40;4.68;;;2.38;;
11970;SDS011;6045;42.682;23.294;2022-10-31T03:23:10;2.08;;;1.88;;
11970;SDS011;6045;42.682;23.294;2022-10-31T03:25:40;2.87;;;2.27;;
11970;SDS011;6045;42.682;23.294;2022-10-31T03:28:08;2.95;;;2.28;;
11970;SDS011;6045;42.682;23.294;2022-10-31T03:30:41;4.03;;;2.63;;
11970;SDS011;6045;42.682;23.294;2022-10-31T03:33:13;3.20;;;2.43;;
11970;SDS011;6045;42.682;23.294;2022-10-31T03:35:44;2.33;;;2.13;;
11970;SDS011;6045;42.682;23.294;2022-10-31T03:38:13;2.67;;;2.13;;
11970;SDS011;6045;42.682;23.294;2022-10-31T03:40:41;3.13;;;2.43;;
11970;SDS011;6045;42.682;23.294;2022-10-31T03:43:13;2.90;;;2.20;;
11970;SDS011;6045;42.682;23.294;2022-10-31T03:45:43;2.97;;;2.30;;
11970;SDS011;6045;42.682;23.294;2022-10-31T03:48:14;2.50;;;2.10;;
11970;SDS011;6045;42.682;23.294;2022-10-31T03:50:45;2.50;;;2.30;;
11970;SDS011;6045;42.682;23.294;2022-10-31T03:53:22;2.37;;;1.87;;
11970;SDS011;6045;42.682;23.294;2022-10-31T03:55:57;3.90;;;2.40;;
11970;SDS011;6045;42.682;23.294;2022-10-31T03:58:28;2.90;;;2.60;;
11970;SDS011;6045;42.682;23.294;2022-10-31T04:01:02;4.60;;;3.10;;
11970;SDS011;6045;42.682;23.294;2022-10-31T04:03:33;3.07;;;2.50;;
11970;SDS011;6045;42.682;23.294;2022-10-31T04:06:04;4.20;;;2.60;;
11970;SDS011;6045;42.682;23.294;2022-10-31T04:08:36;4.27;;;2.17;;
11970;SDS011;6045;42.682;23.294;2022-10-31T04:11:08;3.23;;;2.60;;
11970;SDS011;6045;42.682;23.294;2022-10-31T04:13:38;4.13;;;3.13;;
11970;SDS011;6045;42.682;23.294;2022-10-31T04:16:06;2.70;;;2.27;;
11970;SDS011;6045;42.682;23.294;2022-10-31T04:18:36;5.10;;;2.63;;
11970;SDS011;6045;42.682;23.294;2022-10-31T04:21:04;4.17;;;2.70;;
11970;SDS011;6045;42.682;23.294;2022-10-31T04:23:32;2.90;;;2.50;;
11970;SDS011;6045;42.682;23.294;2022-10-31T04:26:00;4.57;;;3.27;;
11970;SDS011;6045;42.682;23.294;2022-10-31T04:28:33;5.57;;;3.83;;
11970;SDS011;6045;42.682;23.294;2022-10-31T04:31:00;4.10;;;3.33;;
11970;SDS011;6045;42.682;23.294;2022-10-31T04:33:27;3.73;;;3.33;;
11970;SDS011;6045;42.682;23.294;2022-10-31T04:35:55;3.77;;;2.80;;
11970;SDS011;6045;42.682;23.294;2022-10-31T04:38:21;3.60;;;3.30;;
11970;SDS011;6045;42.682;23.294;2022-10-31T04:43:48;5.57;;;3.43;;
11970;SDS011;6045;42.682;23.294;2022-10-31T04:46:14;4.73;;;3.00;;
11970;SDS011;6045;42.682;23.294;2022-10-31T04:48:41;3.87;;;3.43;;
11970;SDS011;6045;42.682;23.294;2022-10-31T04:51:09;4.40;;;2.80;;
11970;SDS011;6045;42.682;23.294;2022-10-31T04:53:36;3.37;;;2.57;;
11970;SDS011;6045;42.682;23.294;2022-10-31T04:56:04;3.23;;;2.93;;
11970;SDS011;6045;42.682;23.294;2022-10-31T04:58:31;3.23;;;2.77;;
11970;SDS011;6045;42.682;23.294;2022-10-31T05:00:58;4.60;;;3.50;;
11970;SDS011;6045;42.682;23.294;2022-10-31T05:03:24;5.53;;;2.73;;
11970;SDS011;6045;42.682;23.294;2022-10-31T05:05:51;3.50;;;2.65;;
11970;SDS011;6045;42.682;23.294;2022-10-31T05:08:19;3.70;;;3.15;;
11970;SDS011;6045;42.682;23.294;2022-10-31T05:10:46;5.38;;;3.10;;
11970;SDS011;6045;42.682;23.294;2022-10-31T05:13:13;4.03;;;2.72;;
11970;SDS011;6045;42.682;23.294;2022-10-31T05:15:40;9.10;;;3.78;;
11970;SDS011;6045;42.682;23.294;2022-10-31T05:18:07;4.70;;;3.08;;
11970;SDS011;6045;42.682;23.294;2022-10-31T05:20:34;3.25;;;2.95;;
11970;SDS011;6045;42.682;23.294;2022-10-31T05:23:01;3.92;;;3.30;;
11970;SDS011;6045;42.682;23.294;2022-10-31T05:25:29;4.53;;;2.80;;
11970;SDS011;6045;42.682;23.294;2022-10-31T05:27:56;4.15;;;3.25;;
11970;SDS011;6045;42.682;23.294;2022-10-31T05:30:25;4.80;;;2.83;;
11970;SDS011;6045;42.682;23.294;2022-10-31T05:32:53;6.75;;;3.75;;
11970;SDS011;6045;42.682;23.294;2022-10-31T05:35:21;5.53;;;3.45;;
11970;SDS011;6045;42.682;23.294;2022-10-31T05:37:49;4.18;;;3.22;;
11970;SDS011;6045;42.682;23.294;2022-10-31T05:40:16;6.35;;;3.15;;
11970;SDS011;6045;42.682;23.294;2022-10-31T05:42:46;5.10;;;3.50;;
11970;SDS011;6045;42.682;23.294;2022-10-31T05:45:13;3.63;;;3.20;;
11970;SDS011;6045;42.682;23.294;2022-10-31T05:47:42;4.78;;;3.50;;
11970;SDS011;6045;42.682;23.294;2022-10-31T05:50:09;5.28;;;3.47;;
11970;SDS011;6045;42.682;23.294;2022-10-31T05:52:36;7.00;;;3.28;;
11970;SDS011;6045;42.682;23.294;2022-10-31T05:55:03;5.10;;;3.58;;
11970;SDS011;6045;42.682;23.294;2022-10-31T05:57:31;6.47;;;3.78;;
11970;SDS011;6045;42.682;23.294;2022-10-31T06:00:01;8.05;;;4.22;;
11970;SDS011;6045;42.682;23.294;2022-10-31T06:02:28;5.45;;;3.72;;
11970;SDS011;6045;42.682;23.294;2022-10-31T06:04:59;4.70;;;4.20;;
11970;SDS011;6045;42.682;23.294;2022-10-31T06:07:26;7.18;;;3.70;;
11970;SDS011;6045;42.682;23.294;2022-10-31T06:09:53;5.93;;;4.03;;
11970;SDS011;6045;42.682;23.294;2022-10-31T06:12:20;4.40;;;2.88;;
11970;SDS011;6045;42.682;23.294;2022-10-31T06:14:46;4.03;;;3.40;;
11970;SDS011;6045;42.682;23.294;2022-10-31T06:17:15;6.13;;;3.95;;
11970;SDS011;6045;42.682;23.294;2022-10-31T06:19:42;5.50;;;3.85;;
11970;SDS011;6045;42.682;23.294;2022-10-31T06:22:09;6.75;;;4.20;;
11970;SDS011;6045;42.682;23.294;2022-10-31T06:24:36;5.05;;;4.13;;
11970;SDS011;6045;42.682;23.294;2022-10-31T06:27:03;6.03;;;4.28;;
11970;SDS011;6045;42.682;23.294;2022-10-31T06:29:30;5.30;;;4.05;;
11970;SDS011;6045;42.682;23.294;2022-10-31T06:31:57;5.43;;;4.15;;
11970;SDS011;6045;42.682;23.294;2022-10-31T06:34:26;6.85;;;4.82;;
11970;SDS011;6045;42.682;23.294;2022-10-31T06:36:53;4.57;;;4.18;;
11970;SDS011;6045;42.682;23.294;2022-10-31T06:39:20;5.80;;;5.03;;
11970;SDS011;6045;42.682;23.294;2022-10-31T06:41:47;6.68;;;4.35;;
11970;SDS011;6045;42.682;23.294;2022-10-31T06:44:13;6.07;;;5.45;;
11970;SDS011;6045;42.682;23.294;2022-10-31T06:46:40;5.07;;;4.57;;
11970;SDS011;6045;42.682;23.294;2022-10-31T06:49:07;8.73;;;5.40;;
11970;SDS011;6045;42.682;23.294;2022-10-31T06:51:35;6.80;;;4.78;;
11970;SDS011;6045;42.682;23.294;2022-10-31T06:54:02;6.70;;;4.90;;
11970;SDS011;6045;42.682;23.294;2022-10-31T06:56:29;9.43;;;4.47;;
11970;SDS011;6045;42.682;23.294;2022-10-31T06:58:56;6.00;;;4.80;;
11970;SDS011;6045;42.682;23.294;2022-10-31T07:01:22;6.75;;;4.78;;
11970;SDS011;6045;42.682;23.294;2022-10-31T07:03:49;5.03;;;4.25;;
11970;SDS011;6045;42.682;23.294;2022-10-31T07:06:16;7.57;;;5.50;;
11970;SDS011;6045;42.682;23.294;2022-10-31T07:08:44;7.32;;;5.22;;
11970;SDS011;6045;42.682;23.294;2022-10-31T07:11:11;6.78;;;4.32;;
11970;SDS011;6045;42.682;23.294;2022-10-31T07:13:38;7.22;;;5.32;;
11970;SDS011;6045;42.682;23.294;2022-10-31T07:16:05;8.60;;;5.22;;
11970;SDS011;6045;42.682;23.294;2022-10-31T07:18:33;5.07;;;4.57;;
11970;SDS011;6045;42.682;23.294;2022-10-31T07:21:00;9.18;;;4.57;;
11970;SDS011;6045;42.682;23.294;2022-10-31T07:23:27;6.60;;;5.00;;
11970;SDS011;6045;42.682;23.294;2022-10-31T07:25:56;8.50;;;5.25;;
11970;SDS011;6045;42.682;23.294;2022-10-31T07:28:23;8.80;;;5.80;;
11970;SDS011;6045;42.682;23.294;2022-10-31T07:30:51;6.50;;;4.97;;
11970;SDS011;6045;42.682;23.294;2022-10-31T07:33:18;6.95;;;4.60;;
11970;SDS011;6045;42.682;23.294;2022-10-31T07:35:46;7.70;;;5.05;;
11970;SDS011;6045;42.682;23.294;2022-10-31T07:38:13;8.02;;;5.18;;
11970;SDS011;6045;42.682;23.294;2022-10-31T07:40:40;8.15;;;5.25;;
11970;SDS011;6045;42.682;23.294;2022-10-31T07:43:09;6.80;;;5.40;;
11970;SDS011;6045;42.682;23.294;2022-10-31T07:45:37;6.47;;;5.20;;
11970;SDS011;6045;42.682;23.294;2022-10-31T07:48:04;7.75;;;5.70;;
11970;SDS011;6045;42.682;23.294;2022-10-31T07:50:31;7.40;;;5.32;;
11970;SDS011;6045;42.682;23.294;2022-10-31T07:52:59;9.65;;;5.50;;
11970;SDS011;6045;42.682;23.294;2022-10-31T07:55:27;8.38;;;5.35;;
11970;SDS011;6045;42.682;23.294;2022-10-31T07:57:55;9.32;;;6.43;;
11970;SDS011;6045;42.682;23.294;2022-10-31T08:00:24;5.18;;;4.47;;
11970;SDS011;6045;42.682;23.294;2022-10-31T08:02:58;7.75;;;5.40;;
11970;SDS011;6045;42.682;23.294;2022-10-31T08:05:25;8.23;;;5.75;;
11970;SDS011;6045;42.682;23.294;2022-10-31T08:07:52;8.98;;;5.60;;
11970;SDS011;6045;42.682;23.294;2022-10-31T08:10:19;6.05;;;4.90;;
11970;SDS011;6045;42.682;23.294;2022-10-31T08:12:46;6.47;;;4.97;;
11970;SDS011;6045;42.682;23.294;2022-10-31T08:15:13;8.75;;;5.82;;
11970;SDS011;6045;42.682;23.294;2022-10-31T08:17:41;8.95;;;5.35;;
11970;SDS011;6045;42.682;23.294;2022-10-31T08:20:08;8.82;;;5.38;;
11970;SDS011;6045;42.682;23.294;2022-10-31T08:22:35;7.40;;;5.32;;
11970;SDS011;6045;42.682;23.294;2022-10-31T08:25:02;9.18;;;6.13;;
11970;SDS011;6045;42.682;23.294;2022-10-31T08:27:29;5.90;;;5.07;;
11970;SDS011;6045;42.682;23.294;2022-10-31T08:29:56;9.00;;;5.82;;
11970;SDS011;6045;42.682;23.294;2022-10-31T08:32:23;5.90;;;5.30;;
11970;SDS011;6045;42.682;23.294;2022-10-31T08:34:51;5.00;;;4.35;;
11970;SDS011;6045;42.682;23.294;2022-10-31T08:37:18;6.00;;;4.85;;
11970;SDS011;6045;42.682;23.294;2022-10-31T08:39:45;5.20;;;4.65;;
11970;SDS011;6045;42.682;23.294;2022-10-31T08:42:12;7.65;;;5.35;;
11970;SDS011;6045;42.682;23.294;2022-10-31T08:44:39;6.47;;;4.75;;
11970;SDS011;6045;42.682;23.294;2022-10-31T08:47:06;6.65;;;5.82;;
11970;SDS011;6045;42.682;23.294;2022-10-31T08:49:32;5.82;;;4.78;;
11970;SDS011;6045;42.682;23.294;2022-10-31T08:52:03;6.70;;;5.43;;
11970;SDS011;6045;42.682;23.294;2022-10-31T08:54:30;6.20;;;4.07;;
11970;SDS011;6045;42.682;23.294;2022-10-31T08:56:56;7.32;;;5.07;;
11970;SDS011;6045;42.682;23.294;2022-10-31T08:59:23;28.05;;;16.92;;
11970;SDS011;6045;42.682;23.294;2022-10-31T09:01:50;38.40;;;25.40;;
11970;SDS011;6045;42.682;23.294;2022-10-31T09:04:17;8.40;;;6.05;;
11970;SDS011;6045;42.682;23.294;2022-10-31T09:06:43;6.25;;;4.70;;
11970;SDS011;6045;42.682;23.294;2022-10-31T09:09:11;7.53;;;5.10;;
11970;SDS011;6045;42.682;23.294;2022-10-31T09:11:38;5.97;;;3.97;;
11970;SDS011;6045;42.682;23.294;2022-10-31T09:14:05;7.10;;;3.97;;
11970;SDS011;6045;42.682;23.294;2022-10-31T09:16:32;6.30;;;4.15;;
11970;SDS011;6045;42.682;23.294;2022-10-31T09:18:59;5.88;;;4.20;;
11970;SDS011;6045;42.682;23.294;2022-10-31T09:21:25;4.72;;;3.83;;
11970;SDS011;6045;42.682;23.294;2022-10-31T09:23:52;4.75;;;3.92;;
11970;SDS011;6045;42.682;23.294;2022-10-31T09:26:20;3.97;;;3.08;;
11970;SDS011;6045;42.682;23.294;2022-10-31T09:28:47;4.65;;;3.50;;
11970;SDS011;6045;42.682;23.294;2022-10-31T09:31:14;5.63;;;3.80;;
11970;SDS011;6045;42.682;23.294;2022-10-31T09:33:41;4.50;;;3.35;;
11970;SDS011;6045;42.682;23.294;2022-10-31T09:36:08;6.53;;;3.75;;
11970;SDS011;6045;42.682;23.294;2022-10-31T09:38:35;4.80;;;3.25;;
11970;SDS011;6045;42.682;23.294;2022-10-31T09:41:05;3.53;;;3.22;;
11970;SDS011;6045;42.682;23.294;2022-10-31T09:43:46;4.70;;;3.25;;
11970;SDS011;6045;42.682;23.294;2022-10-31T09:46:25;4.50;;;3.00;;
11970;SDS011;6045;42.682;23.294;2022-10-31T09:49:07;4.00;;;3.15;;
11970;SDS011;6045;42.682;23.294;2022-10-31T09:51:51;4.05;;;2.90;;
11970;SDS011;6045;42.682;23.294;2022-10-31T09:54:26;7.15;;;3.13;;
11970;SDS011;6045;42.682;23.294;2022-10-31T09:56:57;17.08;;;11.68;;
11970;SDS011;6045;42.682;23.294;2022-10-31T09:59:27;29.63;;;20.45;;
11970;SDS011;6045;42.682;23.294;2022-10-31T10:01:57;8.07;;;5.95;;
11970;SDS011;6045;42.682;23.294;2022-10-31T10:04:29;3.67;;;2.58;;
11970;SDS011;6045;42.682;23.294;2022-10-31T10:07:02;3.67;;;2.70;;
11970;SDS011;6045;42.682;23.294;2022-10-31T10:09:33;3.60;;;3.13;;
11970;SDS011;6045;42.682;23.294;2022-10-31T10:12:03;3.75;;;2.47;;
11970;SDS011;6045;42.682;23.294;2022-10-31T10:14:44;2.72;;;2.10;;
11970;SDS011;6045;42.682;23.294;2022-10-31T10:17:23;3.08;;;2.00;;
11970;SDS011;6045;42.682;23.294;2022-10-31T10:20:04;2.10;;;1.67;;
11970;SDS011;6045;42.682;23.294;2022-10-31T10:22:46;2.00;;;1.75;;
11970;SDS011;6045;42.682;23.294;2022-10-31T10:25:19;3.00;;;1.60;;
11970;SDS011;6045;42.682;23.294;2022-10-31T10:27:50;3.10;;;1.45;;
11970;SDS011;6045;42.682;23.294;2022-10-31T10:30:28;3.50;;;1.85;;
11970;SDS011;6045;42.682;23.294;2022-10-31T10:33:01;3.80;;;2.35;;
11970;SDS011;6045;42.682;23.294;2022-10-31T10:35:32;3.42;;;2.00;;
11970;SDS011;6045;42.682;23.294;2022-10-31T10:38:01;3.55;;;2.10;;
11970;SDS011;6045;42.682;23.294;2022-10-31T10:40:36;3.35;;;2.05;;
11970;SDS011;6045;42.682;23.294;2022-10-31T10:43:12;2.50;;;2.08;;
11970;SDS011;6045;42.682;23.294;2022-10-31T10:45:49;2.08;;;1.77;;
11970;SDS011;6045;42.682;23.294;2022-10-31T10:48:42;2.72;;;1.90;;
11970;SDS011;6045;42.682;23.294;2022-10-31T10:51:15;2.13;;;1.92;;
11970;SDS011;6045;42.682;23.294;2022-10-31T10:53:50;2.10;;;1.90;;
11970;SDS011;6045;42.682;23.294;2022-10-31T10:56:40;3.58;;;1.88;;
11970;SDS011;6045;42.682;23.294;2022-10-31T10:59:15;2.50;;;1.98;;
11970;SDS011;6045;42.682;23.294;2022-10-31T11:01:47;2.60;;;1.95;;
11970;SDS011;6045;42.682;23.294;2022-10-31T11:04:23;2.95;;;1.80;;
11970;SDS011;6045;42.682;23.294;2022-10-31T11:06:59;2.88;;;1.95;;
11970;SDS011;6045;42.682;23.294;2022-10-31T11:09:27;3.50;;;2.00;;
11970;SDS011;6045;42.682;23.294;2022-10-31T11:11:54;2.85;;;2.00;;
11970;SDS011;6045;42.682;23.294;2022-10-31T11:14:22;2.08;;;1.88;;
11970;SDS011;6045;42.682;23.294;2022-10-31T11:16:53;3.13;;;1.90;;
11970;SDS011;6045;42.682;23.294;2022-10-31T11:19:23;2.47;;;1.95;;
11970;SDS011;6045;42.682;23.294;2022-10-31T11:21:52;2.28;;;2.08;;
11970;SDS011;6045;42.682;23.294;2022-10-31T11:24:20;2.42;;;1.95;;
11970;SDS011;6045;42.682;23.294;2022-10-31T11:26:50;2.10;;;1.75;;
11970;SDS011;6045;42.682;23.294;2022-10-31T11:29:20;2.55;;;1.88;;
11970;SDS011;6045;42.682;23.294;2022-10-31T11:31:50;2.08;;;1.75;;
11970;SDS011;6045;42.682;23.294;2022-10-31T11:34:26;1.98;;;1.77;;
11970;SDS011;6045;42.682;23.294;2022-10-31T11:36:58;2.70;;;1.92;;
11970;SDS011;6045;42.682;23.294;2022-10-31T11:39:29;3.85;;;1.65;;
11970;SDS011;6045;42.682;23.294;2022-10-31T11:41:59;3.60;;;1.80;;
11970;SDS011;6045;42.682;23.294;2022-10-31T11:44:28;3.20;;;1.45;;
11970;SDS011;6045;42.682;23.294;2022-10-31T11:46:59;1.98;;;1.77;;
11970;SDS011;6045;42.682;23.294;2022-10-31T11:49:29;4.47;;;1.95;;
11970;SDS011;6045;42.682;23.294;2022-10-31T11:51:59;3.92;;;2.75;;
11970;SDS011;6045;42.682;23.294;2022-10-31T11:54:29;4.25;;;2.75;;
11970;SDS011;6045;42.682;23.294;2022-10-31T11:56:59;4.00;;;2.00;;
11970;SDS011;6045;42.682;23.294;2022-10-31T11:59:26;1.85;;;1.48;;
11970;SDS011;6045;42.682;23.294;2022-10-31T12:01:55;5.03;;;1.75;;
11970;SDS011;6045;42.682;23.294;2022-10-31T12:04:27;2.00;;;1.80;;
11970;SDS011;6045;42.682;23.294;2022-10-31T12:07:00;2.33;;;1.67;;
11970;SDS011;6045;42.682;23.294;2022-10-31T12:09:28;2.08;;;1.55;;
11970;SDS011;6045;42.682;23.294;2022-10-31T12:12:05;2.53;;;1.60;;
11970;SDS011;6045;42.682;23.294;2022-10-31T12:14:51;1.77;;;1.63;;
11970;SDS011;6045;42.682;23.294;2022-10-31T12:17:29;3.22;;;1.48;;
11970;SDS011;6045;42.682;23.294;2022-10-31T12:20:05;2.63;;;1.80;;
11970;SDS011;6045;42.682;23.294;2022-10-31T12:22:44;3.70;;;1.73;;
11970;SDS011;6045;42.682;23.294;2022-10-31T12:25:21;1.48;;;1.38;;
11970;SDS011;6045;42.682;23.294;2022-10-31T12:28:03;1.65;;;1.55;;
11970;SDS011;6045;42.682;23.294;2022-10-31T12:30:46;2.67;;;2.00;;
11970;SDS011;6045;42.682;23.294;2022-10-31T12:33:25;2.33;;;1.63;;
11970;SDS011;6045;42.682;23.294;2022-10-31T12:36:16;2.20;;;2.00;;
11970;SDS011;6045;42.682;23.294;2022-10-31T12:39:02;2.80;;;1.70;;
11970;SDS011;6045;42.682;23.294;2022-10-31T12:41:44;4.35;;;1.50;;
11970;SDS011;6045;42.682;23.294;2022-10-31T12:44:25;2.75;;;1.70;;
11970;SDS011;6045;42.682;23.294;2022-10-31T12:47:05;4.63;;;1.88;;
11970;SDS011;6045;42.682;23.294;2022-10-31T12:49:47;3.50;;;2.08;;
11970;SDS011;6045;42.682;23.294;2022-10-31T12:52:30;2.95;;;1.77;;
11970;SDS011;6045;42.682;23.294;2022-10-31T12:55:10;3.95;;;2.03;;
11970;SDS011;6045;42.682;23.294;2022-10-31T12:57:47;3.05;;;2.13;;
11970;SDS011;6045;42.682;23.294;2022-10-31T13:00:17;2.85;;;2.10;;
11970;SDS011;6045;42.682;23.294;2022-10-31T13:02:48;2.35;;;1.73;;
11970;SDS011;6045;42.682;23.294;2022-10-31T13:05:19;1.92;;;1.52;;
11970;SDS011;6045;42.682;23.294;2022-10-31T13:07:54;5.40;;;2.45;;
11970;SDS011;6045;42.682;23.294;2022-10-31T13:10:24;2.30;;;1.98;;
11970;SDS011;6045;42.682;23.294;2022-10-31T13:12:57;3.97;;;2.15;;
11970;SDS011;6045;42.682;23.294;2022-10-31T13:15:32;4.75;;;2.60;;
11970;SDS011;6045;42.682;23.294;2022-10-31T13:18:06;3.47;;;2.33;;
11970;SDS011;6045;42.682;23.294;2022-10-31T13:20:41;5.47;;;3.13;;
11970;SDS011;6045;42.682;23.294;2022-10-31T13:23:13;3.20;;;2.05;;
11970;SDS011;6045;42.682;23.294;2022-10-31T13:25:46;2.53;;;1.98;;
11970;SDS011;6045;42.682;23.294;2022-10-31T13:28:21;1.92;;;1.70;;
11970;SDS011;6045;42.682;23.294;2022-10-31T13:30:55;4.13;;;2.00;;
11970;SDS011;6045;42.682;23.294;2022-10-31T13:33:23;3.45;;;2.17;;
11970;SDS011;6045;42.682;23.294;2022-10-31T13:35:58;15.50;;;4.78;;
11970;SDS011;6045;42.682;23.294;2022-10-31T13:38:37;14.63;;;5.50;;
11970;SDS011;6045;42.682;23.294;2022-10-31T13:41:11;4.75;;;3.03;;
11970;SDS011;6045;42.682;23.294;2022-10-31T13:43:51;6.18;;;3.47;;
11970;SDS011;6045;42.682;23.294;2022-10-31T13:46:34;7.43;;;2.97;;
11970;SDS011;6045;42.682;23.294;2022-10-31T13:49:02;3.95;;;2.67;;
11970;SDS011;6045;42.682;23.294;2022-10-31T13:51:31;4.53;;;2.55;;
11970;SDS011;6045;42.682;23.294;2022-10-31T13:54:05;8.15;;;3.90;;
11970;SDS011;6045;42.682;23.294;2022-10-31T13:56:47;8.13;;;2.83;;
11970;SDS011;6045;42.682;23.294;2022-10-31T13:59:17;2.17;;;1.95;;
11970;SDS011;6045;42.682;23.294;2022-10-31T14:01:48;5.90;;;3.05;;
11970;SDS011;6045;42.682;23.294;2022-10-31T14:04:18;3.55;;;1.95;;
11970;SDS011;6045;42.682;23.294;2022-10-31T14:06:51;4.07;;;2.50;;
11970;SDS011;6045;42.682;23.294;2022-10-31T14:09:31;3.42;;;2.15;;
11970;SDS011;6045;42.682;23.294;2022-10-31T14:12:02;4.10;;;1.98;;
11970;SDS011;6045;42.682;23.294;2022-10-31T14:14:32;1.85;;;1.67;;
11970;SDS011;6045;42.682;23.294;2022-10-31T14:17:12;3.75;;;1.75;;
11970;SDS011;6045;42.682;23.294;2022-10-31T14:19:55;4.10;;;1.77;;
11970;SDS011;6045;42.682;23.294;2022-10-31T14:22:28;4.20;;;2.53;;
11970;SDS011;6045;42.682;23.294;2022-10-31T14:24:57;2.90;;;1.60;;
11970;SDS011;6045;42.682;23.294;2022-10-31T14:27:32;2.25;;;1.65;;
11970;SDS011;6045;42.682;23.294;2022-10-31T14:30:15;3.47;;;1.80;;
11970;SDS011;6045;42.682;23.294;2022-10-31T14:32:44;1.92;;;1.42;;
11970;SDS011;6045;42.682;23.294;2022-10-31T14:35:17;2.92;;;1.95;;
11970;SDS011;6045;42.682;23.294;2022-10-31T14:37:54;5.10;;;2.08;;
11970;SDS011;6045;42.682;23.294;2022-10-31T14:40:35;8.45;;;3.28;;
11970;SDS011;6045;42.682;23.294;2022-10-31T14:43:16;5.53;;;2.35;;
11970;SDS011;6045;42.682;23.294;2022-10-31T14:45:55;3.13;;;2.13;;
11970;SDS011;6045;42.682;23.294;2022-10-31T14:48:43;2.45;;;1.90;;
11970;SDS011;6045;42.682;23.294;2022-10-31T14:51:20;3.63;;;1.67;;
11970;SDS011;6045;42.682;23.294;2022-10-31T14:53:49;2.97;;;2.10;;
11970;SDS011;6045;42.682;23.294;2022-10-31T14:56:20;2.53;;;2.00;;
11970;SDS011;6045;42.682;23.294;2022-10-31T14:58:51;4.68;;;2.00;;
11970;SDS011;6045;42.682;23.294;2022-10-31T15:01:22;3.03;;;1.83;;
11970;SDS011;6045;42.682;23.294;2022-10-31T15:03:51;2.70;;;1.52;;
11970;SDS011;6045;42.682;23.294;2022-10-31T15:06:19;3.10;;;1.88;;
11970;SDS011;6045;42.682;23.294;2022-10-31T15:08:49;3.60;;;2.58;;
11970;SDS011;6045;42.682;23.294;2022-10-31T15:11:19;3.03;;;2.38;;
11970;SDS011;6045;42.682;23.294;2022-10-31T15:13:47;2.30;;;2.00;;
11970;SDS011;6045;42.682;23.294;2022-10-31T15:16:15;3.72;;;2.08;;
11970;SDS011;6045;42.682;23.294;2022-10-31T15:18:50;11.00;;;7.60;;
11970;SDS011;6045;42.682;23.294;2022-10-31T15:21:19;3.17;;;2.25;;
11970;SDS011;6045;42.682;23.294;2022-10-31T15:23:49;2.75;;;2.00;;